createdAt,value
2019-04-27T00:00:49.445Z,31.80
2019-04-27T00:03:21.031Z,31.40
2019-04-27T00:05:50.046Z,27.35
2019-04-27T00:08:38.860Z,29.30
2019-04-27T00:11:10.433Z,40.25
2019-04-27T00:13:40.578Z,26.93
2019-04-27T00:16:13.330Z,20.57
2019-04-27T00:18:59.093Z,27.37
2019-04-27T00:21:34.172Z,27.45
2019-04-27T00:24:03.347Z,30.20
2019-04-27T00:26:30.518Z,28.98
2019-04-27T00:28:57.851Z,29.60
2019-04-27T00:31:25.503Z,31.20
2019-04-27T00:33:53.556Z,33.35
2019-04-27T00:36:35.209Z,27.95
2019-04-27T00:39:17.928Z,37.55
2019-04-27T00:41:45.239Z,34.90
2019-04-27T00:44:13.519Z,33.58
2019-04-27T00:46:41.095Z,31.75
2019-04-27T00:49:08.387Z,35.25
2019-04-27T00:51:35.630Z,31.30
2019-04-27T00:54:04.523Z,28.38
2019-04-27T00:56:45.352Z,36.17
2019-04-27T00:59:30.903Z,25.72
2019-04-27T01:02:19.192Z,37.53
2019-04-27T01:04:46.440Z,37.75
2019-04-27T01:07:14.312Z,41.37
2019-04-27T01:09:42.879Z,34.80
2019-04-27T01:12:11.397Z,38.38
2019-04-27T01:14:38.608Z,31.62
2019-04-27T01:17:05.900Z,30.92
2019-04-27T01:19:33.130Z,28.25
2019-04-27T01:22:03.221Z,29.45
2019-04-27T01:24:30.528Z,28.12
2019-04-27T01:27:06.410Z,29.50
2019-04-27T01:29:39.247Z,32.58
2019-04-27T01:32:09.700Z,38.28
2019-04-27T01:34:36.959Z,28.57
2019-04-27T01:37:04.248Z,34.23
2019-04-27T01:39:31.501Z,28.38
2019-04-27T01:41:59.125Z,40.48
2019-04-27T01:44:27.149Z,26.33
2019-04-27T01:46:54.384Z,34.18
2019-04-27T01:49:21.643Z,36.28
2019-04-27T01:51:49.326Z,30.30
2019-04-27T01:54:19.356Z,29.57
2019-04-27T01:56:46.862Z,30.43
2019-04-27T01:59:14.132Z,35.10
2019-04-27T02:01:46.214Z,39.90
2019-04-27T02:04:19.333Z,31.57
2019-04-27T02:06:48.945Z,39.30
2019-04-27T02:09:18.760Z,34.08
2019-04-27T02:11:46.368Z,38.60
2019-04-27T02:14:13.664Z,39.18
2019-04-27T02:16:40.987Z,35.17
2019-04-27T02:19:09.016Z,28.80
2019-04-27T02:21:39.088Z,29.72
2019-04-27T02:24:06.632Z,28.85
2019-04-27T02:26:33.856Z,31.45
2019-04-27T02:29:02.917Z,33.75
2019-04-27T02:31:46.777Z,29.98
2019-04-27T02:34:15.822Z,33.02
2019-04-27T02:36:43.037Z,30.12
2019-04-27T02:39:10.339Z,27.82
2019-04-27T02:41:39.826Z,33.73
2019-04-27T02:44:09.698Z,28.12
2019-04-27T02:46:39.340Z,28.23
2019-04-27T02:49:07.387Z,31.90
2019-04-27T02:51:43.159Z,37.98
2019-04-27T02:54:12.675Z,37.10
2019-04-27T02:56:40.532Z,37.67
2019-04-27T02:59:09.539Z,40.95
2019-04-27T03:01:45.661Z,31.35
2019-04-27T03:04:10.021Z,27.48
2019-04-27T03:06:39.637Z,32.93
2019-04-27T03:09:06.817Z,30.05
2019-04-27T03:11:34.221Z,32.13
2019-04-27T03:14:29.409Z,35.52
2019-04-27T03:16:50.721Z,34.38
2019-04-27T03:19:22.532Z,27.87
2019-04-27T03:21:59.317Z,31.00
2019-04-27T03:24:45.241Z,32.75
2019-04-27T03:27:14.339Z,37.15
2019-04-27T03:29:41.562Z,28.77
2019-04-27T03:32:12.710Z,30.20
2019-04-27T03:34:41.548Z,32.90
2019-04-27T03:37:06.951Z,36.48
2019-04-27T03:39:34.196Z,34.50
2019-04-27T03:42:01.519Z,34.10
2019-04-27T03:44:29.600Z,42.55
2019-04-27T03:46:59.546Z,39.50
2019-04-27T03:49:34.510Z,34.55
2019-04-27T03:52:12.433Z,44.45
2019-04-27T03:54:50.142Z,29.05
2019-04-27T03:57:19.961Z,43.02
2019-04-27T04:00:03.929Z,32.93
2019-04-27T04:02:32.947Z,38.80
2019-04-27T04:05:00.201Z,37.80
2019-04-27T04:07:29.758Z,34.83
2019-04-27T04:09:56.528Z,29.07
2019-04-27T04:12:31.381Z,29.10
2019-04-27T04:14:59.780Z,35.52
2019-04-27T04:17:30.756Z,40.25
2019-04-27T04:20:01.444Z,31.02
2019-04-27T04:22:30.183Z,26.45
2019-04-27T04:24:59.912Z,34.85
2019-04-27T04:27:29.730Z,30.45
2019-04-27T04:29:56.074Z,33.88
2019-04-27T04:32:23.272Z,38.83
2019-04-27T04:34:50.596Z,30.32
2019-04-27T04:37:19.617Z,33.25
2019-04-27T04:39:52.632Z,30.37
2019-04-27T04:42:24.038Z,25.97
2019-04-27T04:45:00.508Z,32.83
2019-04-27T04:47:30.824Z,31.82
2019-04-27T04:50:08.556Z,30.00
2019-04-27T04:52:29.297Z,29.23
2019-04-27T04:54:56.353Z,30.32
2019-04-27T04:57:24.581Z,31.62
2019-04-27T04:59:51.827Z,43.35
2019-04-27T05:02:19.230Z,37.63
2019-04-27T05:04:46.839Z,26.37
2019-04-27T05:07:14.054Z,33.48
2019-04-27T05:09:41.350Z,37.58
2019-04-27T05:12:08.943Z,29.27
2019-04-27T05:14:36.260Z,42.65
2019-04-27T05:17:03.555Z,34.48
2019-04-27T05:19:30.872Z,33.15
2019-04-27T05:21:59.358Z,33.48
2019-04-27T05:24:29.284Z,38.67
2019-04-27T05:26:58.800Z,40.43
2019-04-27T05:29:25.974Z,29.98
2019-04-27T05:31:53.257Z,34.38
2019-04-27T05:34:20.474Z,32.83
2019-04-27T05:36:50.271Z,33.00
2019-04-27T05:39:18.063Z,33.15
2019-04-27T05:41:45.921Z,95.55
2019-04-27T05:44:14.974Z,34.95
2019-04-27T05:46:46.970Z,38.53
2019-04-27T05:49:24.512Z,35.48
2019-04-27T05:51:51.854Z,42.35
2019-04-27T05:54:19.279Z,36.77
2019-04-27T05:56:46.572Z,34.27
2019-04-27T05:59:14.885Z,42.30
2019-04-27T06:01:42.318Z,32.17
2019-04-27T06:04:09.594Z,29.90
2019-04-27T06:06:36.888Z,27.17
2019-04-27T06:09:05.152Z,33.80
2019-04-27T06:11:32.398Z,28.57
2019-04-27T06:13:59.666Z,67.27
2019-04-27T06:16:26.928Z,38.40
2019-04-27T06:18:54.190Z,85.07
2019-04-27T06:21:21.566Z,35.63
2019-04-27T06:23:48.885Z,25.82
2019-04-27T06:26:16.204Z,33.10
2019-04-27T06:28:43.688Z,38.30
2019-04-27T06:31:10.925Z,32.50
2019-04-27T06:33:39.188Z,29.07
2019-04-27T06:36:06.790Z,46.83
2019-04-27T06:38:34.009Z,32.40
2019-04-27T06:41:01.551Z,33.53
2019-04-27T06:43:29.421Z,34.10
2019-04-27T06:45:58.597Z,28.00
2019-04-27T06:48:25.769Z,24.90
2019-04-27T06:51:02.799Z,39.92
2019-04-27T06:53:22.101Z,28.98
2019-04-27T06:55:49.845Z,31.52
2019-04-27T06:58:19.774Z,38.08
2019-04-27T07:00:46.198Z,28.12
2019-04-27T07:03:13.408Z,33.38
2019-04-27T07:05:40.984Z,28.85
2019-04-27T07:08:09.000Z,33.83
2019-04-27T07:10:36.367Z,29.85
2019-04-27T07:13:03.661Z,29.82
2019-04-27T07:15:31.781Z,27.70
2019-04-27T07:17:58.990Z,32.50
2019-04-27T07:20:26.310Z,140.73
2019-04-27T07:22:53.568Z,192.10
2019-04-27T07:25:20.799Z,38.17
2019-04-27T07:27:49.339Z,31.65
2019-04-27T07:30:18.795Z,33.02
2019-04-27T07:32:46.055Z,32.45
2019-04-27T07:35:13.362Z,25.90
2019-04-27T07:37:41.154Z,27.80
2019-04-27T07:40:09.083Z,32.08
2019-04-27T07:42:36.508Z,29.37
2019-04-27T07:45:06.525Z,30.62
2019-04-27T07:47:49.332Z,33.80
2019-04-27T07:50:06.447Z,28.75
2019-04-27T07:52:33.703Z,34.65
2019-04-27T07:55:00.929Z,26.87
2019-04-27T07:57:28.935Z,32.08
2019-04-27T07:59:56.723Z,29.07
2019-04-27T08:02:25.027Z,30.68
2019-04-27T08:04:52.317Z,28.87
2019-04-27T08:07:20.635Z,37.28
2019-04-27T08:09:49.659Z,38.28
2019-04-27T08:12:18.483Z,35.43
2019-04-27T08:14:46.076Z,31.60
2019-04-27T08:17:13.304Z,42.65
2019-04-27T08:19:40.588Z,40.40
2019-04-27T08:22:09.542Z,42.85
2019-04-27T08:24:36.884Z,41.08
2019-04-27T08:27:21.031Z,42.13
2019-04-27T08:29:53.088Z,40.60
2019-04-27T08:32:25.482Z,39.03
2019-04-27T08:34:55.525Z,42.43
2019-04-27T08:37:22.759Z,42.90
2019-04-27T08:39:51.484Z,36.20
2019-04-27T08:42:20.491Z,32.20
2019-04-27T08:44:49.531Z,39.38
2019-04-27T08:47:17.063Z,30.52
2019-04-27T08:49:44.305Z,28.75
2019-04-27T08:52:11.533Z,34.20
2019-04-27T08:54:39.386Z,32.98
2019-04-27T08:57:06.805Z,39.53
2019-04-27T08:59:34.023Z,34.88
2019-04-27T09:02:03.144Z,40.63
2019-04-27T09:04:30.380Z,38.20
2019-04-27T09:06:59.825Z,41.88
2019-04-27T09:09:40.848Z,44.15
2019-04-27T09:14:49.443Z,41.40
2019-04-27T09:17:19.347Z,36.17
2019-04-27T09:19:49.371Z,45.78
2019-04-27T09:22:20.537Z,37.50
2019-04-27T09:24:49.287Z,40.10
2019-04-27T09:27:17.972Z,37.67
2019-04-27T09:29:45.632Z,40.00
2019-04-27T09:32:12.897Z,34.35
2019-04-27T09:34:40.824Z,37.95
2019-04-27T09:37:08.128Z,42.88
2019-04-27T09:39:35.852Z,38.78
2019-04-27T09:42:03.288Z,41.45
2019-04-27T09:44:30.514Z,40.83
2019-04-27T09:46:57.744Z,40.15
2019-04-27T09:49:26.282Z,38.33
2019-04-27T09:51:55.570Z,52.03
2019-04-27T09:54:23.777Z,51.05
2019-04-27T09:56:51.130Z,51.88
2019-04-27T09:59:18.354Z,40.73
2019-04-27T10:01:46.485Z,42.78
2019-04-27T10:04:15.702Z,42.58
2019-04-27T10:06:43.361Z,43.42
2019-04-27T10:09:11.001Z,37.45
2019-04-27T10:11:38.285Z,37.00
2019-04-27T10:14:05.902Z,36.85
2019-04-27T10:16:36.568Z,43.20
2019-04-27T10:19:04.834Z,43.90
2019-04-27T10:21:32.035Z,36.85
2019-04-27T10:23:59.283Z,37.13
2019-04-27T10:26:26.572Z,45.67
2019-04-27T10:28:53.822Z,36.15
2019-04-27T10:31:21.080Z,41.55
2019-04-27T10:33:48.372Z,29.37
2019-04-27T10:36:17.654Z,32.85
2019-04-27T10:38:45.804Z,46.58
2019-04-27T10:41:13.726Z,41.13
2019-04-27T10:43:40.955Z,34.00
2019-04-27T10:46:08.197Z,44.73
2019-04-27T10:48:36.719Z,36.03
2019-04-27T10:51:07.106Z,43.15
2019-04-27T10:53:33.435Z,46.08
2019-04-27T10:56:00.732Z,34.88
2019-04-27T10:58:27.950Z,42.25
2019-04-27T11:00:58.459Z,36.35
2019-04-27T11:03:45.845Z,37.03
2019-04-27T11:06:16.014Z,44.15
2019-04-27T11:08:43.479Z,38.48
2019-04-27T11:11:11.730Z,36.48
2019-04-27T11:13:39.016Z,42.75
2019-04-27T11:16:06.329Z,35.30
2019-04-27T11:18:33.545Z,35.80
2019-04-27T11:21:00.997Z,41.80
2019-04-27T11:23:28.279Z,42.23
2019-04-27T11:25:55.501Z,44.42
2019-04-27T11:28:22.736Z,41.45
2019-04-27T11:30:50.070Z,41.05
2019-04-27T11:33:17.299Z,58.90
2019-04-27T11:35:49.114Z,62.98
2019-04-27T11:38:16.850Z,63.75
2019-04-27T11:40:44.167Z,63.15
2019-04-27T11:43:11.477Z,64.40
2019-04-27T11:45:39.984Z,64.07
2019-04-27T11:48:07.199Z,58.92
2019-04-27T11:50:35.749Z,61.48
2019-04-27T11:53:03.785Z,56.92
2019-04-27T11:55:39.101Z,60.83
2019-04-27T11:58:07.445Z,56.73
2019-04-27T12:00:36.352Z,68.22
2019-04-27T12:03:04.623Z,57.50
2019-04-27T12:05:33.966Z,54.13
2019-04-27T12:08:06.254Z,71.28
2019-04-27T12:10:33.777Z,59.55
2019-04-27T12:13:01.048Z,61.63
2019-04-27T12:15:28.643Z,55.55
2019-04-27T12:17:56.357Z,64.05
2019-04-27T12:20:25.809Z,60.40
2019-04-27T12:22:53.397Z,60.20
2019-04-27T12:25:20.708Z,62.55
2019-04-27T12:27:52.597Z,65.60
2019-04-27T12:30:27.496Z,69.85
2019-04-27T12:33:00.439Z,70.17
2019-04-27T12:35:28.882Z,66.37
2019-04-27T12:37:56.174Z,59.33
2019-04-27T12:40:23.746Z,66.92
2019-04-27T12:42:51.085Z,65.42
2019-04-27T12:45:18.978Z,59.00
2019-04-27T12:47:46.500Z,59.60
2019-04-27T12:50:13.986Z,63.23
2019-04-27T12:52:44.008Z,62.45
2019-04-27T12:55:30.138Z,63.00
2019-04-27T12:58:08.123Z,74.87
2019-04-27T13:00:43.622Z,72.42
2019-04-27T13:03:10.971Z,68.78
2019-04-27T13:05:38.199Z,63.70
2019-04-27T13:08:05.492Z,67.80
2019-04-27T13:10:32.818Z,58.68
2019-04-27T13:13:00.047Z,67.62
2019-04-27T13:15:28.346Z,65.55
2019-04-27T13:17:57.210Z,73.95
2019-04-27T13:20:25.652Z,65.35
2019-04-27T13:22:54.316Z,66.35
2019-04-27T13:25:22.008Z,67.78
2019-04-27T13:27:51.142Z,67.87
2019-04-27T13:30:19.155Z,74.80
2019-04-27T13:32:46.941Z,81.28
2019-04-27T13:35:15.847Z,83.47
2019-04-27T13:37:44.224Z,78.67
2019-04-27T13:40:12.774Z,78.28
2019-04-27T13:42:42.671Z,76.65
2019-04-27T13:45:11.712Z,77.70
2019-04-27T13:47:43.548Z,88.20
2019-04-27T13:50:18.236Z,79.30
2019-04-27T13:52:49.603Z,82.02
2019-04-27T13:55:21.745Z,81.55
2019-04-27T13:57:50.897Z,82.50
2019-04-27T14:00:18.149Z,82.60
2019-04-27T14:02:45.448Z,87.90
2019-04-27T14:05:13.752Z,80.57
2019-04-27T14:07:41.227Z,89.22
2019-04-27T14:10:09.326Z,79.25
2019-04-27T14:12:38.451Z,76.92
2019-04-27T14:15:05.757Z,75.70
2019-04-27T14:17:33.052Z,76.57
2019-04-27T14:20:00.281Z,84.00
2019-04-27T14:22:28.193Z,73.75
2019-04-27T14:24:58.361Z,75.60
2019-04-27T14:27:27.316Z,77.65
2019-04-27T14:29:57.028Z,80.28
2019-04-27T14:32:23.622Z,74.60
2019-04-27T14:34:50.841Z,71.57
2019-04-27T14:37:18.596Z,68.92
2019-04-27T14:39:45.969Z,72.05
2019-04-27T14:42:13.176Z,73.05
2019-04-27T14:44:41.186Z,76.33
2019-04-27T14:47:08.902Z,67.08
2019-04-27T14:49:36.115Z,61.05
2019-04-27T14:52:03.343Z,65.90
2019-04-27T14:54:45.180Z,69.87
2019-04-27T14:57:00.370Z,65.10
2019-04-27T14:59:27.608Z,69.62
2019-04-27T15:01:54.914Z,74.45
2019-04-27T15:04:22.125Z,67.67
2019-04-27T15:06:49.354Z,64.77
2019-04-27T15:09:17.938Z,68.00
2019-04-27T15:11:49.256Z,62.67
2019-04-27T15:14:16.252Z,55.00
2019-04-27T15:16:47.159Z,52.78
2019-04-27T15:19:17.677Z,57.73
2019-04-27T15:21:56.450Z,50.35
2019-04-27T15:24:13.666Z,60.40
2019-04-27T15:26:42.326Z,61.75
2019-04-27T15:29:12.104Z,54.55
2019-04-27T15:31:41.396Z,61.10
2019-04-27T15:34:23.317Z,54.73
2019-04-27T15:37:01.934Z,52.40
2019-04-27T15:39:37.214Z,63.78
2019-04-27T15:42:12.112Z,61.75
2019-04-27T15:44:41.067Z,58.42
2019-04-27T15:47:11.921Z,53.15
2019-04-27T15:49:40.739Z,149.55
2019-04-27T15:52:08.939Z,89.97
2019-04-27T15:54:37.858Z,100.18
2019-04-27T15:57:05.681Z,49.25
2019-04-27T15:59:37.863Z,54.88
2019-04-27T16:02:05.450Z,49.75
2019-04-27T16:04:34.489Z,49.15
2019-04-27T16:07:01.966Z,58.05
2019-04-27T16:09:29.194Z,56.37
2019-04-27T16:12:07.010Z,62.15
2019-04-27T16:14:28.730Z,58.35
2019-04-27T16:16:58.876Z,58.02
2019-04-27T16:19:28.573Z,48.78
2019-04-27T16:21:55.766Z,56.90
2019-04-27T16:24:22.989Z,82.27
2019-04-27T16:26:52.309Z,80.70
2019-04-27T16:29:23.058Z,48.38
2019-04-27T16:31:48.415Z,49.73
2019-04-27T16:34:15.652Z,53.63
2019-04-27T16:36:43.588Z,59.70
2019-04-27T16:39:11.983Z,52.40
2019-04-27T16:41:42.083Z,55.73
2019-04-27T16:44:10.972Z,50.00
2019-04-27T16:46:39.432Z,45.92
2019-04-27T16:49:13.752Z,51.18
2019-04-27T16:51:40.241Z,53.08
2019-04-27T16:54:05.976Z,51.92
2019-04-27T16:56:33.235Z,53.20
2019-04-27T16:59:10.053Z,56.50
2019-04-27T17:01:31.369Z,59.83
2019-04-27T17:03:59.452Z,63.33
2019-04-27T17:06:29.357Z,65.70
2019-04-27T17:08:57.308Z,80.75
2019-04-27T17:11:25.562Z,52.50
2019-04-27T17:13:59.578Z,47.35
2019-04-27T17:16:46.373Z,62.75
2019-04-27T17:19:15.468Z,75.22
2019-04-27T17:21:42.662Z,51.20
2019-04-27T17:24:09.906Z,46.02
2019-04-27T17:26:42.283Z,52.35
2019-04-27T17:29:11.086Z,45.12
2019-04-27T17:31:38.845Z,43.05
2019-04-27T17:34:08.009Z,47.03
2019-04-27T17:36:35.178Z,47.78
2019-04-27T17:39:03.982Z,46.30
2019-04-27T17:41:32.402Z,46.70
2019-04-27T17:43:59.659Z,48.87
2019-04-27T17:46:28.222Z,57.10
2019-04-27T17:48:55.826Z,53.35
2019-04-27T17:51:24.517Z,53.08
2019-04-27T17:53:51.817Z,47.33
2019-04-27T17:56:19.051Z,46.60
2019-04-27T17:58:46.286Z,55.30
2019-04-27T18:01:18.117Z,49.55
2019-04-27T18:03:42.769Z,55.15
2019-04-27T18:06:10.058Z,49.53
2019-04-27T18:08:40.082Z,48.50
2019-04-27T18:11:06.453Z,47.73
2019-04-27T18:13:33.684Z,54.08
2019-04-27T18:16:00.976Z,51.48
2019-04-27T18:18:32.780Z,61.37
2019-04-27T18:21:00.373Z,54.08
2019-04-27T18:23:35.471Z,56.05
2019-04-27T18:26:17.655Z,50.08
2019-04-27T18:28:51.490Z,56.15
2019-04-27T18:31:17.870Z,53.38
2019-04-27T18:33:46.662Z,57.53
2019-04-27T18:36:14.574Z,55.23
2019-04-27T18:38:41.949Z,58.78
2019-04-27T18:41:11.645Z,63.73
2019-04-27T18:43:39.568Z,57.83
2019-04-27T18:46:08.930Z,47.45
2019-04-27T18:48:44.774Z,51.48
2019-04-27T18:51:25.251Z,57.58
2019-04-27T18:53:54.195Z,52.38
2019-04-27T18:56:22.859Z,57.20
2019-04-27T18:58:50.097Z,55.00
2019-04-27T19:01:18.773Z,47.48
2019-04-27T19:03:47.530Z,49.50
2019-04-27T19:06:15.211Z,54.20
2019-04-27T19:08:42.456Z,49.77
2019-04-27T19:11:09.715Z,49.73
2019-04-27T19:13:38.144Z,54.23
2019-04-27T19:16:08.006Z,49.55
2019-04-27T19:18:35.639Z,47.08
2019-04-27T19:21:02.864Z,54.98
2019-04-27T19:23:30.087Z,49.27
2019-04-27T19:26:05.201Z,56.53
2019-04-27T19:28:50.321Z,55.80
2019-04-27T19:31:38.310Z,81.42
2019-04-27T19:34:05.674Z,53.25
2019-04-27T19:36:32.961Z,57.58
2019-04-27T19:39:00.601Z,55.20
2019-04-27T19:41:28.867Z,48.55
2019-04-27T19:43:56.175Z,50.67
2019-04-27T19:46:23.452Z,55.35
2019-04-27T19:48:50.673Z,68.37
2019-04-27T19:51:17.888Z,55.40
2019-04-27T19:53:45.157Z,62.38
2019-04-27T19:56:13.975Z,56.83
2019-04-27T19:58:43.059Z,58.02
2019-04-27T20:01:15.183Z,56.05
2019-04-27T20:03:53.051Z,49.30
2019-04-27T20:06:20.341Z,51.00
2019-04-27T20:08:53.510Z,54.83
2019-04-27T20:11:21.116Z,52.80
2019-04-27T20:13:48.347Z,59.18
2019-04-27T20:16:15.594Z,53.42
2019-04-27T20:18:43.363Z,51.45
2019-04-27T20:21:12.310Z,50.75
2019-04-27T20:23:40.878Z,52.45
2019-04-27T20:26:08.184Z,59.77
2019-04-27T20:28:35.397Z,62.05
2019-04-27T20:31:02.882Z,53.23
2019-04-27T20:33:31.148Z,54.95
2019-04-27T20:35:58.754Z,52.80
2019-04-27T20:38:25.969Z,57.78
2019-04-27T20:40:53.326Z,52.75
2019-04-27T20:43:21.401Z,58.50
2019-04-27T20:45:49.476Z,54.70
2019-04-27T20:48:17.170Z,55.78
2019-04-27T20:50:44.400Z,58.28
2019-04-27T20:53:13.464Z,58.80
2019-04-27T20:55:40.757Z,60.52
2019-04-27T20:58:08.207Z,54.75
2019-04-27T21:00:35.440Z,53.45
2019-04-27T21:03:16.816Z,49.05
2019-04-27T21:05:58.106Z,55.17
2019-04-27T21:08:28.476Z,55.60
2019-04-27T21:10:55.757Z,47.80
2019-04-27T21:13:23.015Z,50.38
2019-04-27T21:15:50.950Z,53.98
2019-04-27T21:18:18.272Z,57.53
2019-04-27T21:20:46.501Z,63.92
2019-04-27T21:23:13.821Z,55.70
2019-04-27T21:25:42.105Z,51.75
2019-04-27T21:28:16.443Z,52.05
2019-04-27T21:30:38.882Z,63.42
2019-04-27T21:33:06.141Z,57.62
2019-04-27T21:35:34.069Z,64.77
2019-04-27T21:38:04.467Z,72.80
2019-04-27T21:40:31.384Z,60.10
2019-04-27T21:42:58.718Z,63.70
2019-04-27T21:45:27.430Z,64.62
2019-04-27T21:47:54.669Z,66.90
2019-04-27T21:50:23.182Z,56.75
2019-04-27T21:53:04.338Z,67.05
2019-04-27T21:55:34.356Z,65.22
2019-04-27T21:58:01.610Z,62.80
2019-04-27T22:00:42.486Z,61.13
2019-04-27T22:03:13.224Z,64.65
2019-04-27T22:05:41.702Z,58.73
2019-04-27T22:08:11.473Z,64.40
2019-04-27T22:10:38.232Z,58.58
2019-04-27T22:13:05.572Z,67.62
2019-04-27T22:15:33.278Z,64.20
2019-04-27T22:18:00.728Z,58.35
2019-04-27T22:20:32.431Z,53.35
2019-04-27T22:23:16.490Z,66.60
2019-04-27T22:25:43.795Z,65.10
2019-04-27T22:28:11.739Z,65.15
2019-04-27T22:30:40.630Z,68.17
2019-04-27T22:33:07.928Z,68.25
2019-04-27T22:35:35.522Z,56.68
2019-04-27T22:38:02.747Z,59.85
2019-04-27T22:40:41.898Z,62.33
2019-04-27T22:43:28.039Z,53.58
2019-04-27T22:45:56.937Z,52.15
2019-04-27T22:48:24.163Z,54.38
2019-04-27T22:50:51.503Z,50.35
2019-04-27T22:53:18.805Z,52.55
2019-04-27T22:55:56.407Z,51.45
2019-04-27T22:58:23.683Z,58.78
2019-04-27T23:01:07.931Z,53.35
2019-04-27T23:23:41.378Z,60.60
2019-04-27T23:26:08.901Z,63.42
2019-04-27T23:28:36.144Z,49.83
